Time;durP1;ratioP1;P1;durP2;ratioP2;P2;SDS_P1;SDS_P2;PMS_P1;PMS_P2;Temp;Humidity;BMP_temperature;BMP_pressure;BME280_temperature;BME280_humidity;BME280_pressure;Samples;Min_cycle;Max_cycle;Signal;HPM_P1;HPM_P2
2023/02/05 00:02:06;;;;;;;18.83;10.27;;;-0.80;99.90;;;;;;5035518;28;20081;-82
2023/02/05 00:04:32;;;;;;;19.73;10.37;;;-0.80;99.90;;;;;;5043798;28;20028;-81
2023/02/05 00:06:58;;;;;;;14.33;9.67;;;-0.80;99.90;;;;;;5038046;28;20021;-81
2023/02/05 00:09:24;;;;;;;14.63;9.17;;;-0.90;99.90;;;;;;5037314;28;20041;-82
2023/02/05 00:11:49;;;;;;;14.13;8.27;;;-0.90;99.90;;;;;;5053027;28;20096;-82
2023/02/05 00:14:15;;;;;;;12.00;8.10;;;-0.90;99.90;;;;;;5047193;28;20029;-82
2023/02/05 00:16:41;;;;;;;12.10;8.47;;;-0.90;99.90;;;;;;5043532;28;20023;-82
2023/02/05 00:19:06;;;;;;;13.03;8.90;;;-1.00;99.90;;;;;;5036305;28;20095;-81
2023/02/05 00:21:32;;;;;;;13.03;8.50;;;-1.00;99.90;;;;;;5036172;28;20026;-82
2023/02/05 00:23:57;;;;;;;13.43;8.50;;;-1.00;99.90;;;;;;5045668;28;20025;-82
2023/02/05 00:26:23;;;;;;;12.70;8.83;;;-1.00;99.90;;;;;;5037863;28;20457;-82
2023/02/05 00:28:48;;;;;;;16.57;9.27;;;-1.00;99.90;;;;;;5047133;28;20430;-82
2023/02/05 00:31:20;;;;;;;13.73;9.00;;;-1.00;99.90;;;;;;5051121;28;20466;-81
2023/02/05 00:33:47;;;;;;;13.83;9.20;;;-1.00;99.90;;;;;;5047668;28;20025;-82
2023/02/05 00:36:12;;;;;;;14.60;9.30;;;-1.00;99.90;;;;;;5042458;28;20463;-82
2023/02/05 00:38:39;;;;;;;14.10;8.93;;;-1.00;99.90;;;;;;5044641;28;20028;-82
2023/02/05 00:41:04;;;;;;;14.13;9.23;;;-1.00;99.90;;;;;;5047323;28;20021;-82
2023/02/05 00:43:30;;;;;;;13.43;9.27;;;-1.00;99.90;;;;;;5051707;28;20480;-82
2023/02/05 00:45:56;;;;;;;19.93;9.60;;;-1.00;99.90;;;;;;5044196;28;20021;-82
2023/02/05 00:48:22;;;;;;;14.20;9.37;;;-1.00;99.90;;;;;;5048869;28;20048;-82
2023/02/05 00:50:49;;;;;;;13.23;8.83;;;-1.00;99.90;;;;;;5048015;28;20033;-82
2023/02/05 00:53:14;;;;;;;13.40;9.17;;;-1.00;99.90;;;;;;5041675;28;20071;-82
2023/02/05 00:55:40;;;;;;;14.60;8.93;;;-1.00;99.90;;;;;;5046742;28;20484;-82
2023/02/05 00:58:05;;;;;;;15.73;9.40;;;-1.00;99.90;;;;;;5040480;28;20118;-83
2023/02/05 01:00:32;;;;;;;14.20;8.53;;;-1.00;99.90;;;;;;5041339;28;20031;-82
2023/02/05 01:02:58;;;;;;;14.60;9.23;;;-1.00;99.90;;;;;;5038050;28;20048;-82
2023/02/05 01:05:24;;;;;;;12.77;8.60;;;-1.10;99.90;;;;;;5052112;28;20095;-83
2023/02/05 01:07:49;;;;;;;12.93;8.63;;;-1.10;99.90;;;;;;5043900;28;20477;-82
2023/02/05 01:10:15;;;;;;;13.83;9.20;;;-1.10;99.90;;;;;;5052701;28;20049;-83
2023/02/05 01:12:41;;;;;;;12.77;8.60;;;-1.10;99.90;;;;;;5043693;28;20021;-82
2023/02/05 01:15:07;;;;;;;13.93;9.60;;;-1.20;99.90;;;;;;5042189;28;20034;-83
2023/02/05 01:17:33;;;;;;;13.60;9.40;;;-1.10;99.90;;;;;;5037378;28;20463;-82
2023/02/05 01:19:59;;;;;;;14.40;9.50;;;-1.20;99.90;;;;;;5045799;28;20079;-82
2023/02/05 01:22:24;;;;;;;13.43;9.10;;;-1.10;99.90;;;;;;5044097;28;20029;-82
2023/02/05 01:24:50;;;;;;;12.97;8.83;;;-1.10;99.90;;;;;;5041585;28;20034;-82
2023/02/05 01:27:16;;;;;;;12.93;9.10;;;-1.10;99.90;;;;;;5031538;28;20108;-82
2023/02/05 01:29:41;;;;;;;13.00;8.70;;;-1.20;99.90;;;;;;5041241;28;20021;-82
2023/02/05 01:32:07;;;;;;;13.50;9.57;;;-1.10;99.90;;;;;;5044927;28;20032;-82
2023/02/05 01:34:32;;;;;;;13.47;9.30;;;-1.10;99.90;;;;;;5038375;28;20021;-82
2023/02/05 01:36:58;;;;;;;14.27;9.20;;;-1.10;99.90;;;;;;5036419;28;20034;-82
2023/02/05 01:39:23;;;;;;;14.70;9.30;;;-1.10;99.90;;;;;;5045410;28;20021;-83
2023/02/05 01:41:49;;;;;;;14.13;9.07;;;-1.10;99.90;;;;;;5031916;28;20463;-82
2023/02/05 01:44:23;;;;;;;12.27;7.97;;;-1.10;99.90;;;;;;5036296;28;20053;-82
2023/02/05 01:46:53;;;;;;;14.10;8.80;;;-1.20;99.90;;;;;;5049582;28;20036;-82
2023/02/05 01:49:22;;;;;;;12.77;9.07;;;-1.20;99.90;;;;;;5046021;28;20071;-82
2023/02/05 01:51:48;;;;;;;15.27;9.00;;;-1.20;99.90;;;;;;5034905;28;20029;-82
2023/02/05 01:54:17;;;;;;;12.70;8.80;;;-1.20;99.90;;;;;;5033074;28;20024;-82
2023/02/05 01:56:50;;;;;;;13.03;8.67;;;-1.20;99.90;;;;;;5043780;28;20036;-82
2023/02/05 01:59:20;;;;;;;13.77;9.37;;;-1.20;99.90;;;;;;5056846;28;20028;-82
2023/02/05 02:01:46;;;;;;;14.37;8.97;;;-1.20;99.90;;;;;;5042952;28;20116;-82
2023/02/05 02:04:18;;;;;;;12.10;8.20;;;-1.10;99.90;;;;;;5054089;28;20449;-82
2023/02/05 02:06:43;;;;;;;12.60;8.17;;;-1.10;99.90;;;;;;5051859;28;20018;-82
2023/02/05 02:09:09;;;;;;;15.10;8.40;;;-1.10;99.90;;;;;;5039718;28;20041;-82
2023/02/05 02:11:40;;;;;;;11.53;8.13;;;-1.10;99.90;;;;;;5041391;28;20086;-82
2023/02/05 02:14:10;;;;;;;12.03;8.50;;;-1.10;99.90;;;;;;5045823;28;20036;-82
2023/02/05 02:16:38;;;;;;;13.50;8.67;;;-1.10;99.90;;;;;;5053215;28;20028;-82
2023/02/05 02:19:11;;;;;;;13.00;9.20;;;-1.10;99.90;;;;;;5036667;28;20029;-82
2023/02/05 02:21:53;;;;;;;13.90;7.80;;;-1.10;99.90;;;;;;5025100;28;20438;-82
2023/02/05 02:24:32;;;;;;;12.33;8.50;;;-1.10;99.90;;;;;;5049118;28;20040;-82
2023/02/05 02:27:12;;;;;;;13.77;7.80;;;-1.10;99.90;;;;;;5040069;28;20029;-82
2023/02/05 02:29:42;;;;;;;12.60;8.07;;;-1.10;99.90;;;;;;5043754;28;20343;-82
2023/02/05 02:32:34;;;;;;;13.67;8.20;;;-1.10;99.90;;;;;;5051862;28;20021;-82
2023/02/05 02:35:10;;;;;;;16.07;9.70;;;-1.10;99.90;;;;;;5048812;28;20029;-82
2023/02/05 02:37:57;;;;;;;11.27;7.50;;;-1.10;99.90;;;;;;5055528;28;20021;-82
2023/02/05 02:40:36;;;;;;;11.73;7.87;;;-1.10;99.90;;;;;;5036938;28;20528;-82
2023/02/05 02:43:16;;;;;;;10.97;7.27;;;-1.10;99.90;;;;;;5039732;28;20025;-82
2023/02/05 02:45:47;;;;;;;11.20;7.23;;;-1.10;99.90;;;;;;5032396;28;20052;-81
2023/02/05 02:48:19;;;;;;;9.50;7.03;;;-1.10;99.90;;;;;;5040364;28;20029;-82
2023/02/05 02:50:48;;;;;;;12.90;7.30;;;-1.10;99.90;;;;;;5048829;28;20033;-81
2023/02/05 02:53:19;;;;;;;10.23;7.67;;;-1.10;99.90;;;;;;5041216;28;20451;-82
2023/02/05 02:55:46;;;;;;;11.83;8.33;;;-1.10;99.90;;;;;;5046469;28;20491;-81
2023/02/05 02:58:38;;;;;;;9.97;7.43;;;-1.20;99.90;;;;;;5055233;28;20029;-81
2023/02/05 03:01:07;;;;;;;11.03;7.73;;;-1.20;99.90;;;;;;5041917;28;20033;-82
2023/02/05 03:03:37;;;;;;;11.90;7.77;;;-1.20;99.90;;;;;;5039315;28;20032;-82
2023/02/05 03:06:04;;;;;;;11.20;8.00;;;-1.20;99.90;;;;;;5038077;28;20029;-82
2023/02/05 03:08:36;;;;;;;14.10;8.67;;;-1.20;99.90;;;;;;5039108;28;20034;-82
2023/02/05 03:11:09;;;;;;;10.73;7.87;;;-1.20;99.90;;;;;;5051514;28;20051;-82
2023/02/05 03:13:34;;;;;;;11.33;7.60;;;-1.30;99.90;;;;;;5041600;28;20467;-82
2023/02/05 03:16:03;;;;;;;11.57;7.73;;;-1.30;99.90;;;;;;5041674;28;20032;-82
2023/02/05 03:18:29;;;;;;;10.43;7.37;;;-1.30;99.90;;;;;;5039320;28;20074;-82
2023/02/05 03:21:04;;;;;;;15.30;8.07;;;-1.30;99.90;;;;;;5039666;28;20416;-82
2023/02/05 03:23:30;;;;;;;7.35;5.47;;;-1.30;99.90;;;;;;5040497;28;20415;-82
2023/02/05 03:25:55;;;;;;;11.60;7.60;;;-1.30;99.90;;;;;;5051091;28;20035;-82
2023/02/05 03:28:21;;;;;;;9.20;6.60;;;-1.40;99.90;;;;;;5047847;28;20127;-82
2023/02/05 03:30:58;;;;;;;10.00;7.10;;;-1.40;99.90;;;;;;5034638;28;20092;-82
2023/02/05 03:33:38;;;;;;;10.60;7.43;;;-1.40;99.90;;;;;;5037852;28;20112;-82
2023/02/05 03:36:24;;;;;;;11.63;7.47;;;-1.50;99.90;;;;;;5039381;28;20017;-83
2023/02/05 03:39:09;;;;;;;;;;;-1.50;99.90;;;;;;5036223;28;20052;-83
2023/02/05 03:41:54;;;;;;;12.50;7.15;;;-1.60;99.90;;;;;;5047308;28;19999;-83
2023/02/05 03:44:36;;;;;;;13.45;7.28;;;-1.60;99.90;;;;;;5018053;28;20053;-82
2023/02/05 03:47:10;;;;;;;10.80;7.50;;;-1.60;99.90;;;;;;5048775;28;20028;-83
2023/02/05 03:49:59;;;;;;;11.00;7.23;;;-1.70;99.90;;;;;;5048092;28;20045;-83
2023/02/05 03:52:31;;;;;;;11.97;7.50;;;-1.70;99.90;;;;;;5045388;28;20033;-83
2023/02/05 03:55:12;;;;;;;10.30;7.20;;;-1.80;99.90;;;;;;5034911;28;20096;-82
2023/02/05 03:57:47;;;;;;;10.17;7.17;;;-1.80;99.90;;;;;;5034153;28;20021;-83
2023/02/05 04:00:14;;;;;;;10.63;7.33;;;-1.80;99.90;;;;;;5033256;28;20030;-83
2023/02/05 04:02:41;;;;;;;11.50;7.07;;;-1.90;99.90;;;;;;5039665;28;20074;-82
2023/02/05 04:05:07;;;;;;;12.63;7.33;;;-1.90;99.90;;;;;;5035321;28;20017;-83
2023/02/05 04:07:33;;;;;;;11.57;7.80;;;-1.90;99.90;;;;;;5042679;28;20027;-83
2023/02/05 04:09:58;;;;;;;13.03;7.70;;;-1.90;99.90;;;;;;5035062;28;20116;-83
2023/02/05 04:12:24;;;;;;;16.67;7.40;;;-1.90;99.90;;;;;;5039211;28;20061;-83
2023/02/05 04:14:51;;;;;;;13.30;8.03;;;-2.00;99.90;;;;;;5043395;28;20139;-83
2023/02/05 04:17:17;;;;;;;14.87;7.50;;;-2.00;99.90;;;;;;5036763;28;20103;-83
2023/02/05 04:19:42;;;;;;;10.83;7.03;;;-2.10;99.90;;;;;;5046484;28;20386;-83
2023/02/05 04:22:08;;;;;;;10.00;6.90;;;-2.10;99.90;;;;;;5044362;28;20029;-83
2023/02/05 04:24:33;;;;;;;10.33;7.17;;;-2.10;99.90;;;;;;5043497;28;20025;-82
2023/02/05 04:26:59;;;;;;;9.33;6.90;;;-2.20;99.90;;;;;;5049698;28;20025;-82
2023/02/05 04:29:24;;;;;;;12.60;7.83;;;-2.20;99.90;;;;;;5040137;28;20033;-83
2023/02/05 04:31:50;;;;;;;10.17;7.00;;;-2.20;99.90;;;;;;5046694;28;20128;-82
2023/02/05 04:34:16;;;;;;;11.37;7.30;;;-2.30;99.90;;;;;;5042137;28;20025;-83
2023/02/05 04:36:41;;;;;;;10.70;7.53;;;-2.30;99.90;;;;;;5045785;28;20025;-82
2023/02/05 04:39:07;;;;;;;11.93;8.20;;;-2.30;99.90;;;;;;5049955;28;20031;-82
2023/02/05 04:41:32;;;;;;;11.87;7.50;;;-2.30;99.90;;;;;;5046955;28;20454;-83
2023/02/05 04:43:58;;;;;;;11.60;8.10;;;-2.40;99.90;;;;;;5036848;28;20037;-83
2023/02/05 04:46:23;;;;;;;11.33;7.93;;;-2.40;99.90;;;;;;5037403;28;20364;-83
2023/02/05 04:48:51;;;;;;;10.60;7.37;;;-2.40;99.90;;;;;;5047552;28;20037;-82
2023/02/05 04:51:19;;;;;;;10.47;7.33;;;-2.40;99.90;;;;;;5047419;28;20424;-83
2023/02/05 04:53:45;;;;;;;16.93;8.57;;;-2.40;99.90;;;;;;5048825;28;20033;-83
2023/02/05 04:56:15;;;;;;;13.37;8.00;;;-2.40;99.90;;;;;;5040222;28;20328;-82
2023/02/05 04:58:42;;;;;;;16.33;8.90;;;-2.40;99.90;;;;;;5031294;28;20492;-82
2023/02/05 05:01:12;;;;;;;14.57;8.10;;;-2.40;99.90;;;;;;5045660;28;20099;-82
2023/02/05 05:03:38;;;;;;;11.07;7.33;;;-2.40;99.90;;;;;;5044400;28;20021;-83
2023/02/05 05:06:04;;;;;;;11.57;7.10;;;-2.50;99.90;;;;;;5045069;28;20043;-83
2023/02/05 05:08:30;;;;;;;12.43;7.93;;;-2.50;99.90;;;;;;5034164;28;20037;-83
2023/02/05 05:10:56;;;;;;;11.13;7.43;;;-2.40;99.90;;;;;;5045461;28;20041;-83
2023/02/05 05:13:22;;;;;;;12.13;7.13;;;-2.50;99.90;;;;;;5043972;28;20026;-82
2023/02/05 05:15:54;;;;;;;12.03;7.07;;;-2.50;99.90;;;;;;5040660;28;20025;-82
2023/02/05 05:18:22;;;;;;;9.53;7.33;;;-2.50;99.90;;;;;;5040436;28;20469;-82
2023/02/05 05:20:50;;;;;;;11.67;8.03;;;-2.50;99.90;;;;;;5046713;28;20427;-82
2023/02/05 05:23:16;;;;;;;13.20;7.67;;;-2.50;99.90;;;;;;5037868;28;20386;-83
2023/02/05 05:25:46;;;;;;;11.47;8.17;;;-2.50;99.90;;;;;;5041403;28;20025;-83
2023/02/05 05:28:13;;;;;;;11.87;7.97;;;-2.50;99.90;;;;;;5046535;28;20103;-82
2023/02/05 05:30:40;;;;;;;13.53;8.33;;;-2.50;99.90;;;;;;5048449;28;20033;-82
2023/02/05 05:33:06;;;;;;;12.13;7.60;;;-2.50;99.90;;;;;;5044337;28;20021;-82
2023/02/05 05:35:32;;;;;;;11.50;7.37;;;-2.50;99.90;;;;;;5045545;28;20040;-82
2023/02/05 05:37:58;;;;;;;10.90;7.20;;;-2.50;99.90;;;;;;5049564;28;20063;-82
2023/02/05 05:45:55;;;;;;;11.43;7.57;;;-2.60;99.90;;;;;;5048393;28;20048;-82
2023/02/05 05:48:20;;;;;;;13.33;8.03;;;-2.70;99.90;;;;;;5044573;28;20029;-81
2023/02/05 05:50:46;;;;;;;11.03;6.80;;;-2.70;99.90;;;;;;5037714;28;20060;-82
2023/02/05 05:53:12;;;;;;;12.57;6.80;;;-2.70;99.90;;;;;;5045189;28;20033;-82
2023/02/05 05:55:37;;;;;;;10.53;6.70;;;-2.70;99.90;;;;;;5044574;28;20097;-82
2023/02/05 05:58:03;;;;;;;13.43;6.80;;;-2.70;99.90;;;;;;5041537;28;20054;-82
2023/02/05 06:00:28;;;;;;;13.17;7.10;;;-2.80;99.90;;;;;;5039620;28;20037;-82
2023/02/05 06:02:54;;;;;;;10.97;6.50;;;-2.80;99.90;;;;;;5041386;28;20094;-82
2023/02/05 06:05:22;;;;;;;10.43;6.73;;;-2.80;99.90;;;;;;5040312;28;20028;-81
2023/02/05 06:07:47;;;;;;;10.20;7.00;;;-2.90;99.90;;;;;;5045464;28;20041;-82
2023/02/05 06:10:13;;;;;;;9.13;6.83;;;-2.90;99.90;;;;;;5035905;28;20391;-82
2023/02/05 06:12:38;;;;;;;11.97;6.60;;;-2.90;99.90;;;;;;5046012;28;20048;-82
2023/02/05 06:15:04;;;;;;;15.70;8.80;;;-2.90;99.90;;;;;;5046626;28;20171;-82
2023/02/05 06:17:30;;;;;;;33.30;15.27;;;-2.90;99.90;;;;;;5038968;28;20100;-82
2023/02/05 06:19:56;;;;;;;35.80;16.47;;;-2.90;99.90;;;;;;5037868;28;20056;-82
2023/02/05 06:22:21;;;;;;;25.47;12.47;;;-2.90;99.90;;;;;;5038661;28;20025;-82
2023/02/05 06:24:47;;;;;;;23.20;11.40;;;-2.90;99.90;;;;;;5043658;28;20033;-88
2023/02/05 06:27:12;;;;;;;14.57;8.10;;;-2.90;99.90;;;;;;5041819;28;20102;-84
2023/02/05 06:29:38;;;;;;;12.30;7.70;;;-2.90;99.90;;;;;;5041592;28;20059;-83
2023/02/05 06:32:04;;;;;;;13.03;7.97;;;-2.90;99.90;;;;;;5048764;28;20017;-83
2023/02/05 06:34:29;;;;;;;12.47;7.63;;;-2.90;99.90;;;;;;5039320;28;20481;-83
2023/02/05 06:36:55;;;;;;;12.53;7.50;;;-2.90;99.90;;;;;;5046988;28;20028;-83
2023/02/05 06:39:21;;;;;;;11.67;7.13;;;-3.00;99.90;;;;;;5039797;28;20037;-84
2023/02/05 06:41:46;;;;;;;12.00;7.13;;;-2.90;99.90;;;;;;5026133;28;20034;-84
2023/02/05 06:44:12;;;;;;;11.07;6.80;;;-3.00;99.90;;;;;;5027404;28;20496;-84
2023/02/05 06:46:38;;;;;;;13.87;8.17;;;-3.00;99.90;;;;;;5030525;28;20518;-84
2023/02/05 06:49:03;;;;;;;11.33;7.30;;;-3.00;99.90;;;;;;5031316;28;20026;-84
2023/02/05 06:51:33;;;;;;;13.70;8.67;;;-3.00;99.90;;;;;;5032427;28;20032;-84
2023/02/05 06:54:01;;;;;;;8.87;6.53;;;-3.00;99.90;;;;;;5031980;28;20082;-84
2023/02/05 06:56:29;;;;;;;11.20;6.27;;;-3.00;99.90;;;;;;5030282;28;20032;-84
2023/02/05 06:58:55;;;;;;;10.57;6.80;;;-3.10;99.90;;;;;;5034545;28;20033;-76
2023/02/05 07:01:20;;;;;;;12.93;7.00;;;-3.00;99.90;;;;;;5023105;28;20018;-76
2023/02/05 07:03:47;;;;;;;10.00;6.00;;;-3.10;99.90;;;;;;5028326;28;20021;-82
2023/02/05 07:06:13;;;;;;;10.27;6.23;;;-3.00;99.90;;;;;;5045559;28;20013;-83
2023/02/05 07:08:38;;;;;;;10.70;6.70;;;-3.00;99.90;;;;;;5041548;28;20719;-82
2023/02/05 07:11:04;;;;;;;8.57;6.10;;;-3.00;99.90;;;;;;5042128;28;20022;-82
2023/02/05 07:13:30;;;;;;;8.80;6.03;;;-3.00;99.90;;;;;;5042577;28;20358;-83
2023/02/05 07:15:55;;;;;;;7.87;6.20;;;-3.00;99.90;;;;;;5041863;28;20021;-82
2023/02/05 07:18:21;;;;;;;7.67;5.60;;;-3.00;99.90;;;;;;5035304;28;20041;-80
2023/02/05 07:20:48;;;;;;;8.67;6.27;;;-2.90;99.90;;;;;;5026026;28;20028;-80
2023/02/05 07:23:13;;;;;;;11.40;5.83;;;-2.90;99.90;;;;;;5028734;28;20068;-80
2023/02/05 07:25:39;;;;;;;10.17;5.87;;;-2.80;99.90;;;;;;5028125;28;20147;-84
2023/02/05 07:28:06;;;;;;;7.90;5.60;;;-2.80;99.90;;;;;;5024064;28;20064;-80
2023/02/05 07:30:32;;;;;;;9.00;6.03;;;-2.70;99.90;;;;;;5026969;28;20029;-80
2023/02/05 07:32:59;;;;;;;8.97;6.17;;;-2.70;99.90;;;;;;5028736;28;20071;-82
2023/02/05 07:35:25;;;;;;;7.83;5.80;;;-2.70;99.90;;;;;;5024506;28;20032;-83
2023/02/05 07:37:53;;;;;;;8.70;6.00;;;-2.60;99.90;;;;;;5025011;28;20029;-83
2023/02/05 07:40:26;;;;;;;8.67;5.77;;;-2.60;99.90;;;;;;5025629;28;20033;-84
2023/02/05 07:42:52;;;;;;;8.47;5.60;;;-2.60;99.90;;;;;;5024594;28;20052;-83
2023/02/05 07:45:22;;;;;;;11.10;6.37;;;-2.50;99.90;;;;;;5023782;28;20728;-83
2023/02/05 07:47:53;;;;;;;8.90;5.90;;;-2.50;99.90;;;;;;5041978;28;20033;-81
2023/02/05 07:50:22;;;;;;;11.23;7.33;;;-2.40;99.90;;;;;;5036782;28;20033;-81
2023/02/05 07:52:48;;;;;;;9.90;6.50;;;-2.30;99.90;;;;;;5031777;28;20338;-81
2023/02/05 07:55:13;;;;;;;10.40;6.77;;;-2.30;99.90;;;;;;5023641;28;20036;-84
2023/02/05 07:57:39;;;;;;;11.27;7.67;;;-2.30;99.90;;;;;;5022450;28;20033;-83
2023/02/05 08:00:06;;;;;;;10.73;7.10;;;-2.20;99.90;;;;;;5020808;28;20120;-84
2023/02/05 08:02:31;;;;;;;10.77;7.10;;;-2.10;99.90;;;;;;5021854;28;20044;-84
2023/02/05 08:04:57;;;;;;;9.67;6.60;;;-2.10;99.90;;;;;;5023512;28;20033;-84
2023/02/05 08:07:22;;;;;;;10.93;6.63;;;-2.00;99.90;;;;;;5022361;28;20041;-84
2023/02/05 08:09:50;;;;;;;12.13;6.67;;;-1.90;99.90;;;;;;5021329;28;20136;-84
2023/02/05 08:12:16;;;;;;;9.90;6.30;;;-1.90;99.90;;;;;;5024427;28;21339;-84
2023/02/05 08:14:41;;;;;;;9.77;6.30;;;-1.80;99.90;;;;;;5024319;28;20026;-84
2023/02/05 08:17:07;;;;;;;10.17;6.17;;;-1.70;99.90;;;;;;5022294;28;20026;-84
2023/02/05 08:19:32;;;;;;;10.33;6.13;;;-1.60;99.90;;;;;;5022182;28;20039;-81
2023/02/05 08:22:00;;;;;;;9.13;6.30;;;-1.50;99.90;;;;;;5048743;28;20485;-81
2023/02/05 08:24:26;;;;;;;8.97;6.00;;;-1.40;99.90;;;;;;5033658;28;20036;-84
2023/02/05 08:26:51;;;;;;;8.10;5.80;;;-1.30;99.90;;;;;;5022501;28;21431;-81
2023/02/05 08:29:17;;;;;;;8.27;6.27;;;-1.20;99.90;;;;;;5023681;28;20105;-81
2023/02/05 08:31:42;;;;;;;8.53;5.83;;;-1.10;99.90;;;;;;5024309;28;20052;-81
2023/02/05 08:34:08;;;;;;;7.97;5.90;;;-0.90;99.90;;;;;;5023884;28;20181;-81
2023/02/05 08:36:34;;;;;;;8.30;5.87;;;-0.80;99.90;;;;;;5024448;28;20108;-81
2023/02/05 08:39:02;;;;;;;9.50;6.97;;;-0.70;99.90;;;;;;5022935;28;20026;-81
2023/02/05 08:41:28;;;;;;;9.83;7.13;;;-0.60;99.90;;;;;;5022228;28;20086;-81
2023/02/05 08:43:53;;;;;;;11.53;7.40;;;-0.50;99.90;;;;;;5023573;28;20037;-81
2023/02/05 08:46:23;;;;;;;12.23;7.60;;;-0.30;99.90;;;;;;5022662;28;20033;-81
2023/02/05 08:48:49;;;;;;;12.80;7.57;;;-0.30;99.90;;;;;;5023662;28;20021;-84
2023/02/05 08:51:15;;;;;;;34.47;19.43;;;-0.10;99.90;;;;;;5022608;28;20481;-84
2023/02/05 08:53:41;;;;;;;9.13;6.33;;;0.00;99.90;;;;;;5021342;28;20084;-84
2023/02/05 08:56:09;;;;;;;10.47;6.30;;;0.10;99.90;;;;;;5023124;28;20526;-84
2023/02/05 08:58:35;;;;;;;9.33;7.00;;;0.20;99.90;;;;;;5020453;28;20017;-84
2023/02/05 09:01:06;;;;;;;8.37;6.73;;;0.30;99.90;;;;;;5036386;28;20067;-85
2023/02/05 09:03:32;;;;;;;8.70;6.40;;;0.50;99.90;;;;;;5034261;28;20053;-80
2023/02/05 09:05:59;;;;;;;9.37;6.77;;;0.50;99.90;;;;;;5032897;28;20092;-80
2023/02/05 09:08:26;;;;;;;7.80;6.10;;;0.60;99.90;;;;;;5021435;28;20095;-82
2023/02/05 09:10:52;;;;;;;10.07;6.87;;;0.70;99.90;;;;;;5023509;28;20456;-77
2023/02/05 09:13:17;;;;;;;8.43;6.73;;;0.70;99.90;;;;;;5030082;28;20028;-82
2023/02/05 09:15:45;;;;;;;9.77;7.00;;;0.80;99.90;;;;;;5034933;28;20029;-78
2023/02/05 09:18:10;;;;;;;9.83;6.90;;;0.80;99.90;;;;;;5038271;28;20107;-78
2023/02/05 09:20:41;;;;;;;9.27;6.43;;;0.90;99.90;;;;;;5034434;28;20025;-85
2023/02/05 09:23:10;;;;;;;9.97;7.30;;;0.90;99.90;;;;;;5037998;28;20479;-78
2023/02/05 09:25:37;;;;;;;13.50;8.07;;;1.00;99.90;;;;;;5037478;28;20080;-78
2023/02/05 09:28:03;;;;;;;9.90;7.17;;;1.10;99.90;;;;;;5038998;28;20053;-78
2023/02/05 09:30:28;;;;;;;12.03;8.20;;;1.20;99.90;;;;;;5038322;28;20036;-78
2023/02/05 09:32:54;;;;;;;11.77;8.23;;;1.20;99.90;;;;;;5035059;28;20486;-78
2023/02/05 09:35:19;;;;;;;11.53;7.50;;;1.30;99.90;;;;;;5042606;28;20025;-78
2023/02/05 09:37:45;;;;;;;12.30;7.93;;;1.40;99.90;;;;;;5042370;28;20437;-78
2023/02/05 09:40:23;;;;;;;10.47;6.90;;;1.50;99.90;;;;;;5035862;28;20025;-79
2023/02/05 09:43:04;;;;;;;11.33;7.33;;;1.70;99.90;;;;;;5043883;28;20421;-78
2023/02/05 09:45:39;;;;;;;11.13;7.57;;;1.90;99.90;;;;;;5033914;28;20053;-78
2023/02/05 09:48:21;;;;;;;;;;;2.00;99.90;;;;;;5028938;28;20056;-79
2023/02/05 09:50:47;;;;;;;10.37;7.30;;;2.10;99.90;;;;;;5029392;28;19919;-78
2023/02/05 09:53:17;;;;;;;10.90;7.33;;;2.20;99.90;;;;;;5041595;28;20097;-79
2023/02/05 09:55:44;;;;;;;11.30;8.10;;;2.30;99.90;;;;;;5036608;28;20047;-78
2023/02/05 09:58:25;;;;;;;11.43;7.77;;;2.40;99.90;;;;;;5027415;28;20026;-83
2023/02/05 10:00:58;;;;;;;13.80;8.43;;;2.50;99.90;;;;;;5026643;28;20108;-83
2023/02/05 10:03:41;;;;;;;15.50;8.97;;;2.50;99.90;;;;;;5027550;28;20037;-83
2023/02/05 10:06:20;;;;;;;10.93;7.53;;;2.60;99.90;;;;;;5026921;28;20026;-83
2023/02/05 10:09:00;;;;;;;10.23;7.50;;;2.70;99.90;;;;;;5027754;28;20486;-83
2023/02/05 10:11:27;;;;;;;13.83;8.60;;;2.80;99.90;;;;;;5025831;28;20029;-83
2023/02/05 10:14:20;;;;;;;13.20;8.23;;;2.90;99.90;;;;;;5023083;28;20172;-83
2023/02/05 10:16:58;;;;;;;11.80;8.30;;;3.00;99.90;;;;;;5024579;28;20029;-82
2023/02/05 10:19:33;;;;;;;11.10;7.67;;;3.10;99.90;;;;;;5026618;28;20029;-83
2023/02/05 10:21:59;;;;;;;;;;;3.20;99.90;;;;;;5026381;28;20040;-83
2023/02/05 10:25:02;;;;;;;11.83;7.77;;;3.30;99.90;;;;;;5025946;28;19913;-83
2023/02/05 10:27:37;;;;;;;13.17;7.53;;;3.30;99.90;;;;;;5024079;28;20030;-83
2023/02/05 10:30:14;;;;;;;;;;;3.40;99.90;;;;;;5026474;28;20033;-83
2023/02/05 10:33:10;;;;;;;10.40;7.50;;;3.40;99.90;;;;;;5026075;28;19960;-82
2023/02/05 10:35:45;;;;;;;13.13;7.15;;;3.50;99.90;;;;;;5026119;28;20029;-82
2023/02/05 10:38:22;;;;;;;9.65;6.22;;;3.70;99.90;;;;;;5024795;28;20033;-83
2023/02/05 10:40:52;;;;;;;9.87;5.60;;;3.90;99.90;;;;;;5024481;28;21427;-83
2023/02/05 10:43:30;;;;;;;8.90;5.23;;;4.10;99.90;;;;;;5025841;28;20036;-83
2023/02/05 10:45:57;;;;;;;8.97;5.10;;;4.20;99.90;;;;;;5025349;28;20155;-83
2023/02/05 10:48:45;;;;;;;11.60;5.43;;;4.20;99.90;;;;;;5024779;28;20033;-83
2023/02/05 10:51:13;;;;;;;10.97;5.40;;;4.20;99.90;;;;;;5024714;28;20033;-83
2023/02/05 10:53:40;;;;;;;8.47;4.30;;;4.30;99.90;;;;;;5024720;28;20036;-83
2023/02/05 10:56:06;;;;;;;9.63;4.60;;;4.30;99.90;;;;;;5025436;28;20022;-82
2023/02/05 10:58:42;;;;;;;9.70;4.07;;;4.30;99.90;;;;;;5025381;28;20036;-82
2023/02/05 11:01:17;;;;;;;8.23;4.53;;;4.20;99.90;;;;;;5024863;28;20058;-82
2023/02/05 11:03:53;;;;;;;14.57;4.75;;;4.10;99.90;;;;;;5023443;28;20056;-83
2023/02/05 11:06:21;;;;;;;12.60;4.30;;;4.00;99.90;;;;;;5024192;28;20037;-83
2023/02/05 11:08:47;;;;;;;10.97;4.70;;;3.90;99.90;;;;;;5023612;28;20762;-82
2023/02/05 11:11:28;;;;;;;8.93;4.67;;;3.90;99.90;;;;;;5025425;28;20018;-83
2023/02/05 11:14:00;;;;;;;7.47;4.40;;;4.00;99.90;;;;;;5023892;28;20766;-83
2023/02/05 11:16:41;;;;;;;11.50;4.87;;;4.10;99.90;;;;;;5025482;28;21315;-83
2023/02/05 11:19:23;;;;;;;12.27;4.37;;;4.10;99.90;;;;;;5024844;28;20021;-83
2023/02/05 11:21:54;;;;;;;14.83;4.90;;;4.00;99.90;;;;;;5024917;28;20827;-83
2023/02/05 11:24:40;;;;;;;10.43;4.20;;;4.10;99.90;;;;;;5024694;28;20029;-83
2023/02/05 11:27:14;;;;;;;10.10;4.20;;;4.20;99.90;;;;;;5019708;28;20120;-83
2023/02/05 11:29:41;;;;;;;15.50;4.95;;;4.20;99.90;;;;;;5024835;28;20106;-83
2023/02/05 11:32:37;;;;;;;15.83;5.10;;;4.20;99.90;;;;;;5023663;28;20068;-82
2023/02/05 11:35:18;;;;;;;16.33;4.68;;;4.10;99.90;;;;;;5024895;28;20025;-82
2023/02/05 11:37:45;;;;;;;9.40;4.40;;;4.10;99.90;;;;;;5023450;28;20767;-83
2023/02/05 11:40:23;;;;;;;8.07;3.67;;;4.10;99.90;;;;;;5023247;28;20049;-83
2023/02/05 11:43:01;;;;;;;15.53;4.47;;;4.00;99.90;;;;;;5024551;28;20075;-83
2023/02/05 11:45:28;;;;;;;8.50;3.50;;;4.00;99.90;;;;;;5023362;28;20032;-82
2023/02/05 11:47:53;;;;;;;6.90;3.97;;;4.00;99.90;;;;;;5026587;28;20117;-81
2023/02/05 11:50:25;;;;;;;12.70;4.37;;;4.00;99.90;;;;;;5025223;28;20036;-82
2023/02/05 11:52:55;;;;;;;11.70;3.73;;;3.90;99.90;;;;;;5051490;28;20119;-85
2023/02/05 11:55:30;;;;;;;9.53;3.50;;;3.90;99.90;;;;;;5026094;28;20033;-85
2023/02/05 11:58:05;;;;;;;10.70;4.00;;;4.00;99.90;;;;;;5025210;28;20030;-85
2023/02/05 12:00:33;;;;;;;10.60;4.00;;;4.00;99.90;;;;;;5024829;28;20017;-85
2023/02/05 12:03:28;;;;;;;10.27;3.90;;;3.90;99.90;;;;;;5023546;28;20261;-85
2023/02/05 12:05:58;;;;;;;8.23;3.63;;;3.90;99.90;;;;;;5023154;28;20033;-84
2023/02/05 12:09:17;;;;;;;12.73;3.83;;;3.90;99.90;;;;;;5023020;28;20032;-85
2023/02/05 12:12:05;;;;;;;12.40;4.27;;;3.80;99.90;;;;;;5028605;28;20045;-85
2023/02/05 12:14:46;;;;;;;9.27;3.83;;;3.80;99.90;;;;;;5030170;28;20465;-85
2023/02/05 12:17:47;;;;;;;10.97;4.30;;;3.70;99.90;;;;;;5030770;28;20036;-85
2023/02/05 12:20:37;;;;;;;12.47;4.80;;;3.60;99.90;;;;;;5030539;28;20037;-85
2023/02/05 12:26:32;;;;;;;13.73;4.60;;;3.70;99.90;;;;;;5030729;28;20055;-84
2023/02/05 12:29:34;;;;;;;12.30;4.97;;;3.60;99.90;;;;;;5029812;28;20021;-84
2023/02/05 12:32:22;;;;;;;11.60;4.27;;;3.60;99.90;;;;;;5028309;28;20033;-85
2023/02/05 12:35:21;;;;;;;11.30;4.53;;;3.70;99.90;;;;;;5050643;28;20643;-85
2023/02/05 12:37:52;;;;;;;11.80;4.60;;;3.70;99.90;;;;;;5027776;28;20028;-82
2023/02/05 12:40:23;;;;;;;11.03;5.03;;;3.70;99.90;;;;;;5039906;28;20025;-82
2023/02/05 12:43:04;;;;;;;13.03;5.40;;;3.70;99.90;;;;;;5037483;28;20045;-82
2023/02/05 12:46:04;;;;;;;14.10;4.70;;;3.70;99.90;;;;;;5035936;28;20124;-82
2023/02/05 12:48:52;;;;;;;14.87;4.83;;;3.70;99.90;;;;;;5037363;28;20500;-82
2023/02/05 12:51:45;;;;;;;12.23;4.70;;;3.70;99.90;;;;;;5037238;28;20029;-82
2023/02/05 12:54:30;;;;;;;17.27;6.17;;;3.70;99.90;;;;;;5036991;28;20021;-82
2023/02/05 12:57:06;;;;;;;17.83;5.50;;;3.70;99.90;;;;;;5035892;28;20025;-82
2023/02/05 12:59:43;;;;;;;17.93;5.93;;;3.80;99.90;;;;;;5036874;28;20037;-82
2023/02/05 13:02:18;;;;;;;12.20;5.43;;;3.70;99.90;;;;;;5035640;28;20029;-82
2023/02/05 13:04:52;;;;;;;15.53;6.10;;;3.70;99.90;;;;;;5034599;28;20032;-82
2023/02/05 13:07:38;;;;;;;13.97;5.43;;;3.60;99.90;;;;;;5035086;28;20029;-82
2023/02/05 13:10:12;;;;;;;19.03;5.47;;;3.60;99.90;;;;;;5037614;28;20294;-82